sensor_id;sensor_type;location;lat;lon;timestamp;pressure;altitude;pressure_sealevel;temperature;humidity
64632;BME280;58358;50.936;0.246;2023-05-22T00:01:53;101384.18;;;10.73;64.75
64632;BME280;58358;50.936;0.246;2023-05-22T00:04:19;101377.87;;;9.30;68.14
64632;BME280;58358;50.936;0.246;2023-05-22T00:06:45;101378.45;;;10.13;65.81
64632;BME280;58358;50.936;0.246;2023-05-22T00:09:10;101377.20;;;10.66;63.87
64632;BME280;58358;50.936;0.246;2023-05-22T00:11:36;101374.11;;;10.84;62.44
64632;BME280;58358;50.936;0.246;2023-05-22T00:14:02;101370.87;;;9.53;66.26
64632;BME280;58358;50.936;0.246;2023-05-22T00:16:28;101374.65;;;10.29;64.85
64632;BME280;58358;50.936;0.246;2023-05-22T00:18:54;101376.52;;;10.92;60.77
64632;BME280;58358;50.936;0.246;2023-05-22T00:21:19;101372.00;;;9.52;66.28
64632;BME280;58358;50.936;0.246;2023-05-22T00:23:46;101371.30;;;9.93;65.87
64632;BME280;58358;50.936;0.246;2023-05-22T00:26:13;101373.35;;;10.55;64.25
64632;BME280;58358;50.936;0.246;2023-05-22T00:28:37;101369.78;;;9.83;65.91
64632;BME280;58358;50.936;0.246;2023-05-22T00:31:03;101372.63;;;9.28;67.86
64632;BME280;58358;50.936;0.246;2023-05-22T00:33:28;101368.10;;;10.34;65.68
64632;BME280;58358;50.936;0.246;2023-05-22T00:35:54;101364.69;;;8.71;70.22
64632;BME280;58358;50.936;0.246;2023-05-22T00:38:28;101362.06;;;9.59;68.32
64632;BME280;58358;50.936;0.246;2023-05-22T00:40:46;101363.66;;;8.22;69.87
64632;BME280;58358;50.936;0.246;2023-05-22T00:43:12;101360.58;;;9.43;68.27
64632;BME280;58358;50.936;0.246;2023-05-22T00:45:38;101364.99;;;10.03;65.21
64632;BME280;58358;50.936;0.246;2023-05-22T00:48:04;101360.55;;;9.89;64.52
64632;BME280;58358;50.936;0.246;2023-05-22T00:50:29;101357.38;;;10.11;64.95
64632;BME280;58358;50.936;0.246;2023-05-22T00:52:54;101352.61;;;9.68;67.00
64632;BME280;58358;50.936;0.246;2023-05-22T00:55:20;101349.35;;;9.80;66.75
64632;BME280;58358;50.936;0.246;2023-05-22T00:57:46;101349.18;;;9.26;67.48
64632;BME280;58358;50.936;0.246;2023-05-22T01:00:12;101346.01;;;9.05;68.51
64632;BME280;58358;50.936;0.246;2023-05-22T01:02:37;101344.26;;;9.73;65.31
64632;BME280;58358;50.936;0.246;2023-05-22T01:05:03;101344.17;;;9.12;69.02
64632;BME280;58358;50.936;0.246;2023-05-22T01:07:28;101345.24;;;9.14;70.79
64632;BME280;58358;50.936;0.246;2023-05-22T01:09:54;101345.50;;;9.76;65.82
64632;BME280;58358;50.936;0.246;2023-05-22T01:12:24;101339.36;;;9.96;65.75
64632;BME280;58358;50.936;0.246;2023-05-22T01:14:52;101337.42;;;9.52;65.38
64632;BME280;58358;50.936;0.246;2023-05-22T01:17:18;101337.73;;;9.88;64.46
64632;BME280;58358;50.936;0.246;2023-05-22T01:19:51;101334.96;;;10.06;64.90
64632;BME280;58358;50.936;0.246;2023-05-22T01:22:11;101334.36;;;9.95;63.79
64632;BME280;58358;50.936;0.246;2023-05-22T01:29:35;101331.17;;;10.51;63.30
64632;BME280;58358;50.936;0.246;2023-05-22T01:31:47;101330.57;;;10.11;63.14
64632;BME280;58358;50.936;0.246;2023-05-22T01:34:12;101329.50;;;10.24;62.38
64632;BME280;58358;50.936;0.246;2023-05-22T01:36:37;101325.60;;;10.39;62.84
64632;BME280;58358;50.936;0.246;2023-05-22T01:39:03;101320.66;;;9.63;65.87
64632;BME280;58358;50.936;0.246;2023-05-22T01:41:28;101317.14;;;9.05;68.05
64632;BME280;58358;50.936;0.246;2023-05-22T01:43:55;101315.73;;;9.94;65.39
64632;BME280;58358;50.936;0.246;2023-05-22T01:46:20;101313.93;;;9.92;65.00
64632;BME280;58358;50.936;0.246;2023-05-22T01:48:46;101314.46;;;10.50;63.79
64632;BME280;58358;50.936;0.246;2023-05-22T01:51:16;101315.30;;;9.87;65.45
64632;BME280;58358;50.936;0.246;2023-05-22T01:53:42;101314.73;;;10.25;64.91
64632;BME280;58358;50.936;0.246;2023-05-22T01:56:06;101311.70;;;10.43;62.28
64632;BME280;58358;50.936;0.246;2023-05-22T01:58:33;101307.05;;;10.29;62.20
64632;BME280;58358;50.936;0.246;2023-05-22T02:00:55;101305.19;;;8.55;69.26
64632;BME280;58358;50.936;0.246;2023-05-22T02:03:24;101306.32;;;9.22;68.27
64632;BME280;58358;50.936;0.246;2023-05-22T02:05:48;101305.28;;;8.78;67.32
64632;BME280;58358;50.936;0.246;2023-05-22T02:08:12;101305.37;;;8.98;67.74
64632;BME280;58358;50.936;0.246;2023-05-22T02:10:37;101298.52;;;8.33;72.19
64632;BME280;58358;50.936;0.246;2023-05-22T02:13:03;101301.41;;;9.28;68.62
64632;BME280;58358;50.936;0.246;2023-05-22T02:15:29;101302.40;;;7.45;73.46
64632;BME280;58358;50.936;0.246;2023-05-22T02:17:54;101296.31;;;8.47;71.53
64632;BME280;58358;50.936;0.246;2023-05-22T02:20:20;101297.25;;;9.01;69.85
64632;BME280;58358;50.936;0.246;2023-05-22T02:22:46;101296.12;;;9.87;66.48
64632;BME280;58358;50.936;0.246;2023-05-22T02:25:11;101293.51;;;9.14;68.81
64632;BME280;58358;50.936;0.246;2023-05-22T02:27:37;101296.32;;;9.85;66.85
64632;BME280;58358;50.936;0.246;2023-05-22T02:30:03;101289.79;;;8.71;71.04
64632;BME280;58358;50.936;0.246;2023-05-22T02:32:28;101289.99;;;9.78;68.56
64632;BME280;58358;50.936;0.246;2023-05-22T02:34:54;101285.36;;;8.32;71.07
64632;BME280;58358;50.936;0.246;2023-05-22T02:37:19;101285.46;;;8.65;73.47
64632;BME280;58358;50.936;0.246;2023-05-22T02:39:45;101277.45;;;8.77;73.47
64632;BME280;58358;50.936;0.246;2023-05-22T02:42:10;101277.28;;;8.71;73.95
64632;BME280;58358;50.936;0.246;2023-05-22T02:44:36;101274.37;;;8.71;72.80
64632;BME280;58358;50.936;0.246;2023-05-22T02:47:01;101275.14;;;9.58;69.69
64632;BME280;58358;50.936;0.246;2023-05-22T02:49:27;101278.11;;;7.94;76.95
64632;BME280;58358;50.936;0.246;2023-05-22T02:51:52;101283.90;;;7.88;77.24
64632;BME280;58358;50.936;0.246;2023-05-22T02:54:18;101283.90;;;8.01;78.65
64632;BME280;58358;50.936;0.246;2023-05-22T02:56:44;101279.05;;;7.52;79.01
64632;BME280;58358;50.936;0.246;2023-05-22T02:59:09;101270.68;;;8.56;74.29
64632;BME280;58358;50.936;0.246;2023-05-22T03:01:35;101271.82;;;7.81;76.05
64632;BME280;58358;50.936;0.246;2023-05-22T03:04:00;101269.14;;;8.33;75.43
64632;BME280;58358;50.936;0.246;2023-05-22T03:06:25;101272.45;;;8.43;77.33
64632;BME280;58358;50.936;0.246;2023-05-22T03:08:51;101265.98;;;8.73;74.95
64632;BME280;58358;50.936;0.246;2023-05-22T03:11:16;101265.45;;;9.24;73.18
64632;BME280;58358;50.936;0.246;2023-05-22T03:13:42;101264.84;;;8.38;76.73
64632;BME280;58358;50.936;0.246;2023-05-22T03:16:07;101268.53;;;8.35;78.16
64632;BME280;58358;50.936;0.246;2023-05-22T03:18:34;101264.02;;;9.28;74.78
64632;BME280;58358;50.936;0.246;2023-05-22T03:20:59;101261.98;;;8.37;78.35
64632;BME280;58358;50.936;0.246;2023-05-22T03:23:25;101269.14;;;9.65;73.44
64632;BME280;58358;50.936;0.246;2023-05-22T03:25:50;101265.67;;;9.51;74.10
64632;BME280;58358;50.936;0.246;2023-05-22T03:28:15;101262.55;;;8.32;78.67
64632;BME280;58358;50.936;0.246;2023-05-22T03:30:41;101260.65;;;8.27;80.03
64632;BME280;58358;50.936;0.246;2023-05-22T03:33:06;101265.34;;;8.47;79.10
64632;BME280;58358;50.936;0.246;2023-05-22T03:35:32;101265.15;;;9.15;77.17
64632;BME280;58358;50.936;0.246;2023-05-22T03:37:58;101264.52;;;8.73;79.41
64632;BME280;58358;50.936;0.246;2023-05-22T03:40:23;101262.55;;;7.58;82.79
64632;BME280;58358;50.936;0.246;2023-05-22T03:42:49;101265.44;;;7.90;81.61
64632;BME280;58358;50.936;0.246;2023-05-22T03:45:15;101262.96;;;8.99;79.02
64632;BME280;58358;50.936;0.246;2023-05-22T03:47:40;101266.66;;;9.30;76.58
64632;BME280;58358;50.936;0.246;2023-05-22T03:50:07;101267.96;;;7.84;83.21
64632;BME280;58358;50.936;0.246;2023-05-22T03:52:32;101264.05;;;8.31;83.00
64632;BME280;58358;50.936;0.246;2023-05-22T03:54:58;101262.21;;;9.12;78.71
64632;BME280;58358;50.936;0.246;2023-05-22T03:57:23;101263.89;;;8.21;84.74
64632;BME280;58358;50.936;0.246;2023-05-22T03:59:49;101263.14;;;8.44;82.11
64632;BME280;58358;50.936;0.246;2023-05-22T04:02:15;101264.66;;;8.87;80.18
64632;BME280;58358;50.936;0.246;2023-05-22T04:04:40;101263.48;;;8.85;81.82
64632;BME280;58358;50.936;0.246;2023-05-22T04:07:06;101264.80;;;8.87;80.50
64632;BME280;58358;50.936;0.246;2023-05-22T04:09:33;101265.87;;;9.40;77.12
64632;BME280;58358;50.936;0.246;2023-05-22T04:11:57;101265.93;;;9.44;77.47
64632;BME280;58358;50.936;0.246;2023-05-22T04:14:22;101266.86;;;8.42;81.29
64632;BME280;58358;50.936;0.246;2023-05-22T04:16:48;101264.45;;;8.76;79.59
64632;BME280;58358;50.936;0.246;2023-05-22T04:19:13;101266.95;;;8.19;81.60
64632;BME280;58358;50.936;0.246;2023-05-22T04:21:39;101265.04;;;8.14;82.13
64632;BME280;58358;50.936;0.246;2023-05-22T04:24:05;101262.52;;;8.34;81.82
64632;BME280;58358;50.936;0.246;2023-05-22T04:26:30;101261.87;;;8.81;81.01
64632;BME280;58358;50.936;0.246;2023-05-22T04:28:55;101268.46;;;8.55;80.25
64632;BME280;58358;50.936;0.246;2023-05-22T04:31:20;101268.57;;;9.48;78.76
64632;BME280;58358;50.936;0.246;2023-05-22T04:33:47;101267.52;;;9.03;80.04
64632;BME280;58358;50.936;0.246;2023-05-22T04:36:12;101271.07;;;8.96;80.99
64632;BME280;58358;50.936;0.246;2023-05-22T04:38:37;101273.42;;;9.61;78.37
64632;BME280;58358;50.936;0.246;2023-05-22T04:41:03;101270.06;;;8.69;81.69
64632;BME280;58358;50.936;0.246;2023-05-22T04:43:28;101274.32;;;9.56;78.40
64632;BME280;58358;50.936;0.246;2023-05-22T04:45:54;101272.97;;;9.37;81.06
64632;BME280;58358;50.936;0.246;2023-05-22T04:48:19;101271.03;;;8.97;81.42
64632;BME280;58358;50.936;0.246;2023-05-22T04:50:46;101271.53;;;8.15;84.81
64632;BME280;58358;50.936;0.246;2023-05-22T04:53:11;101274.57;;;9.21;82.02
64632;BME280;58358;50.936;0.246;2023-05-22T04:55:37;101277.71;;;9.83;79.14
64632;BME280;58358;50.936;0.246;2023-05-22T04:58:03;101277.08;;;8.13;86.16
64632;BME280;58358;50.936;0.246;2023-05-22T05:00:28;101278.34;;;9.15;81.71
64632;BME280;58358;50.936;0.246;2023-05-22T05:02:54;101279.97;;;9.79;79.45
64632;BME280;58358;50.936;0.246;2023-05-22T05:05:19;101277.76;;;9.52;78.78
64632;BME280;58358;50.936;0.246;2023-05-22T05:07:47;101277.68;;;8.87;81.27
64632;BME280;58358;50.936;0.246;2023-05-22T05:10:11;101278.11;;;9.39;80.89
64632;BME280;58358;50.936;0.246;2023-05-22T05:12:36;101282.22;;;9.29;81.20
64632;BME280;58358;50.936;0.246;2023-05-22T05:15:02;101281.47;;;9.50;79.17
64632;BME280;58358;50.936;0.246;2023-05-22T05:17:27;101282.63;;;10.69;75.74
64632;BME280;58358;50.936;0.246;2023-05-22T05:19:52;101286.42;;;10.20;76.36
64632;BME280;58358;50.936;0.246;2023-05-22T05:22:18;101293.96;;;10.12;75.82
64632;BME280;58358;50.936;0.246;2023-05-22T05:24:44;101298.58;;;10.47;75.16
64632;BME280;58358;50.936;0.246;2023-05-22T05:27:09;101300.01;;;10.81;73.73
64632;BME280;58358;50.936;0.246;2023-05-22T05:29:34;101295.24;;;9.15;80.40
64632;BME280;58358;50.936;0.246;2023-05-22T05:32:00;101297.63;;;10.08;78.27
64632;BME280;58358;50.936;0.246;2023-05-22T05:34:26;101294.09;;;9.48;80.57
64632;BME280;58358;50.936;0.246;2023-05-22T05:36:51;101297.00;;;9.78;79.17
64632;BME280;58358;50.936;0.246;2023-05-22T05:39:17;101299.65;;;10.53;76.67
64632;BME280;58358;50.936;0.246;2023-05-22T05:41:43;101303.06;;;10.38;77.22
64632;BME280;58358;50.936;0.246;2023-05-22T05:44:09;101306.12;;;9.58;78.67
64632;BME280;58358;50.936;0.246;2023-05-22T05:46:35;101309.47;;;10.64;75.97
64632;BME280;58358;50.936;0.246;2023-05-22T05:49:06;101312.71;;;10.20;77.01
64632;BME280;58358;50.936;0.246;2023-05-22T05:51:25;101313.94;;;10.25;78.23
64632;BME280;58358;50.936;0.246;2023-05-22T05:53:51;101313.95;;;10.43;76.35
64632;BME280;58358;50.936;0.246;2023-05-22T05:56:16;101309.82;;;11.59;73.39
64632;BME280;58358;50.936;0.246;2023-05-22T05:58:42;101320.76;;;11.06;74.80
64632;BME280;58358;50.936;0.246;2023-05-22T06:01:07;101317.58;;;9.53;80.27
64632;BME280;58358;50.936;0.246;2023-05-22T06:03:32;101318.56;;;10.36;78.90
64632;BME280;58358;50.936;0.246;2023-05-22T06:05:57;101318.07;;;10.21;78.79
64632;BME280;58358;50.936;0.246;2023-05-22T06:08:23;101317.70;;;9.86;79.81
64632;BME280;58358;50.936;0.246;2023-05-22T06:10:49;101316.33;;;10.06;79.23
64632;BME280;58358;50.936;0.246;2023-05-22T06:13:14;101312.16;;;10.01;79.43
64632;BME280;58358;50.936;0.246;2023-05-22T06:15:40;101309.58;;;9.47;81.15
64632;BME280;58358;50.936;0.246;2023-05-22T06:18:05;101320.01;;;9.64;81.00
64632;BME280;58358;50.936;0.246;2023-05-22T06:20:31;101314.11;;;9.92;80.18
64632;BME280;58358;50.936;0.246;2023-05-22T06:22:57;101318.36;;;9.98;80.34
64632;BME280;58358;50.936;0.246;2023-05-22T06:25:22;101325.14;;;10.88;77.78
64632;BME280;58358;50.936;0.246;2023-05-22T06:27:47;101327.89;;;10.01;80.67
64632;BME280;58358;50.936;0.246;2023-05-22T06:30:13;101330.71;;;10.45;77.55
64632;BME280;58358;50.936;0.246;2023-05-22T06:32:38;101336.16;;;11.16;76.45
64632;BME280;58358;50.936;0.246;2023-05-22T06:35:05;101343.54;;;11.31;75.74
64632;BME280;58358;50.936;0.246;2023-05-22T06:37:30;101342.76;;;10.02;79.63
64632;BME280;58358;50.936;0.246;2023-05-22T06:39:55;101351.60;;;10.75;76.61
64632;BME280;58358;50.936;0.246;2023-05-22T06:42:21;101352.67;;;10.81;76.33
64632;BME280;58358;50.936;0.246;2023-05-22T06:44:47;101358.68;;;10.91;74.50
64632;BME280;58358;50.936;0.246;2023-05-22T06:47:12;101359.06;;;10.61;77.29
64632;BME280;58358;50.936;0.246;2023-05-22T06:49:38;101354.81;;;9.71;81.22
64632;BME280;58358;50.936;0.246;2023-05-22T06:52:04;101354.22;;;10.18;78.45
64632;BME280;58358;50.936;0.246;2023-05-22T06:54:29;101352.71;;;9.96;79.82
64632;BME280;58358;50.936;0.246;2023-05-22T06:56:55;101352.62;;;9.77;80.75
64632;BME280;58358;50.936;0.246;2023-05-22T06:59:20;101356.42;;;10.76;77.69
64632;BME280;58358;50.936;0.246;2023-05-22T07:01:46;101353.01;;;11.68;73.46
64632;BME280;58358;50.936;0.246;2023-05-22T07:04:11;101358.37;;;11.54;73.42
64632;BME280;58358;50.936;0.246;2023-05-22T07:06:37;101359.48;;;10.63;75.13
64632;BME280;58358;50.936;0.246;2023-05-22T07:09:03;101360.40;;;10.05;79.02
64632;BME280;58358;50.936;0.246;2023-05-22T07:11:28;101364.09;;;10.12;80.02
64632;BME280;58358;50.936;0.246;2023-05-22T07:13:53;101370.50;;;10.93;78.18
64632;BME280;58358;50.936;0.246;2023-05-22T07:16:19;101362.25;;;11.42;74.88
64632;BME280;58358;50.936;0.246;2023-05-22T07:18:45;101358.08;;;10.75;77.78
64632;BME280;58358;50.936;0.246;2023-05-22T07:21:11;101366.95;;;11.06;77.50
64632;BME280;58358;50.936;0.246;2023-05-22T07:23:36;101366.70;;;11.76;74.07
64632;BME280;58358;50.936;0.246;2023-05-22T07:26:02;101363.44;;;12.18;70.94
64632;BME280;58358;50.936;0.246;2023-05-22T07:28:28;101364.51;;;11.38;73.70
64632;BME280;58358;50.936;0.246;2023-05-22T07:30:53;101364.47;;;11.61;73.31
64632;BME280;58358;50.936;0.246;2023-05-22T07:33:18;101370.73;;;12.42;68.75
64632;BME280;58358;50.936;0.246;2023-05-22T07:35:46;101372.49;;;13.23;67.62
64632;BME280;58358;50.936;0.246;2023-05-22T07:38:10;101381.60;;;13.13;66.94
64632;BME280;58358;50.936;0.246;2023-05-22T07:40:35;101382.27;;;12.40;69.21
64632;BME280;58358;50.936;0.246;2023-05-22T07:43:00;101382.37;;;12.19;70.07
64632;BME280;58358;50.936;0.246;2023-05-22T07:45:26;101382.04;;;12.09;69.93
64632;BME280;58358;50.936;0.246;2023-05-22T07:47:51;101377.72;;;13.30;66.59
64632;BME280;58358;50.936;0.246;2023-05-22T07:50:17;101379.33;;;13.84;65.21
64632;BME280;58358;50.936;0.246;2023-05-22T07:52:43;101381.14;;;12.88;66.72
64632;BME280;58358;50.936;0.246;2023-05-22T07:55:08;101383.48;;;14.22;63.75
64632;BME280;58358;50.936;0.246;2023-05-22T07:57:33;101384.52;;;13.33;64.15
64632;BME280;58358;50.936;0.246;2023-05-22T07:59:59;101390.84;;;14.01;62.48
64632;BME280;58358;50.936;0.246;2023-05-22T08:02:24;101390.31;;;14.12;62.43
64632;BME280;58358;50.936;0.246;2023-05-22T08:04:49;101387.79;;;14.08;61.59
64632;BME280;58358;50.936;0.246;2023-05-22T08:07:15;101387.97;;;15.13;58.95
64632;BME280;58358;50.936;0.246;2023-05-22T08:09:41;101381.27;;;14.19;59.39
64632;BME280;58358;50.936;0.246;2023-05-22T08:12:07;101385.92;;;12.56;66.53
64632;BME280;58358;50.936;0.246;2023-05-22T08:14:32;101387.55;;;12.20;65.65
64632;BME280;58358;50.936;0.246;2023-05-22T08:16:58;101387.48;;;15.29;58.26
64632;BME280;58358;50.936;0.246;2023-05-22T08:19:24;101385.46;;;15.40;58.04
64632;BME280;58358;50.936;0.246;2023-05-22T08:21:49;101385.98;;;13.91;59.87
64632;BME280;58358;50.936;0.246;2023-05-22T08:24:15;101387.79;;;15.54;57.16
64632;BME280;58358;50.936;0.246;2023-05-22T08:26:41;101390.98;;;16.10;54.48
64632;BME280;58358;50.936;0.246;2023-05-22T08:29:06;101386.87;;;16.42;52.63
64632;BME280;58358;50.936;0.246;2023-05-22T08:31:31;101387.05;;;16.07;54.60
64632;BME280;58358;50.936;0.246;2023-05-22T08:33:57;101384.35;;;16.12;55.14
64632;BME280;58358;50.936;0.246;2023-05-22T08:36:22;101380.59;;;16.49;54.26
64632;BME280;58358;50.936;0.246;2023-05-22T08:38:48;101380.47;;;15.97;53.40
64632;BME280;58358;50.936;0.246;2023-05-22T08:41:14;101386.72;;;15.69;54.51
64632;BME280;58358;50.936;0.246;2023-05-22T08:43:40;101388.01;;;15.88;55.92
64632;BME280;58358;50.936;0.246;2023-05-22T08:46:05;101385.78;;;14.33;59.90
64632;BME280;58358;50.936;0.246;2023-05-22T08:48:31;101389.32;;;14.47;59.04
64632;BME280;58358;50.936;0.246;2023-05-22T08:50:57;101384.61;;;14.61;59.84
64632;BME280;58358;50.936;0.246;2023-05-22T08:53:22;101392.75;;;16.42;55.56
64632;BME280;58358;50.936;0.246;2023-05-22T08:55:48;101392.59;;;15.07;55.95
64632;BME280;58358;50.936;0.246;2023-05-22T08:58:13;101397.63;;;17.75;50.31
64632;BME280;58358;50.936;0.246;2023-05-22T09:00:38;101395.27;;;15.06;56.19
64632;BME280;58358;50.936;0.246;2023-05-22T09:03:03;101393.27;;;16.67;54.54
64632;BME280;58358;50.936;0.246;2023-05-22T09:05:29;101398.02;;;15.37;57.21
64632;BME280;58358;50.936;0.246;2023-05-22T09:07:55;101395.42;;;15.19;56.60
64632;BME280;58358;50.936;0.246;2023-05-22T09:10:20;101395.72;;;15.11;58.45
64632;BME280;58358;50.936;0.246;2023-05-22T09:12:59;101388.77;;;14.76;59.06
64632;BME280;58358;50.936;0.246;2023-05-22T09:15:12;101389.44;;;15.76;56.54
64632;BME280;58358;50.936;0.246;2023-05-22T09:17:38;101384.14;;;16.92;53.02
64632;BME280;58358;50.936;0.246;2023-05-22T09:20:04;101378.61;;;17.78;50.88
64632;BME280;58358;50.936;0.246;2023-05-22T09:22:34;101392.50;;;16.47;52.25
64632;BME280;58358;50.936;0.246;2023-05-22T09:24:55;101386.33;;;15.69;55.87
64632;BME280;58358;50.936;0.246;2023-05-22T09:27:23;101385.32;;;14.84;60.51
64632;BME280;58358;50.936;0.246;2023-05-22T09:29:49;101385.57;;;15.95;56.73
64632;BME280;58358;50.936;0.246;2023-05-22T09:32:12;101387.74;;;15.22;57.39
64632;BME280;58358;50.936;0.246;2023-05-22T09:34:36;101384.64;;;16.92;54.84
64632;BME280;58358;50.936;0.246;2023-05-22T09:37:01;101388.40;;;15.98;54.92
64632;BME280;58358;50.936;0.246;2023-05-22T09:39:37;101387.10;;;17.07;52.56
64632;BME280;58358;50.936;0.246;2023-05-22T09:41:53;101385.84;;;15.98;52.54
64632;BME280;58358;50.936;0.246;2023-05-22T09:44:18;101388.03;;;15.61;56.83
64632;BME280;58358;50.936;0.246;2023-05-22T09:46:45;101383.02;;;16.80;52.88
64632;BME280;58358;50.936;0.246;2023-05-22T09:49:09;101388.18;;;16.20;53.58
64632;BME280;58358;50.936;0.246;2023-05-22T09:51:35;101394.28;;;16.88;52.95
64632;BME280;58358;50.936;0.246;2023-05-22T09:54:02;101394.91;;;16.84;52.77
64632;BME280;58358;50.936;0.246;2023-05-22T09:56:26;101395.87;;;16.23;53.04
64632;BME280;58358;50.936;0.246;2023-05-22T09:58:51;101395.86;;;16.58;53.40
64632;BME280;58358;50.936;0.246;2023-05-22T10:01:18;101394.22;;;15.31;57.22
64632;BME280;58358;50.936;0.246;2023-05-22T10:03:42;101389.23;;;16.76;54.34
64632;BME280;58358;50.936;0.246;2023-05-22T10:06:09;101388.23;;;15.98;54.43
64632;BME280;58358;50.936;0.246;2023-05-22T10:08:40;101396.30;;;16.20;55.48
64632;BME280;58358;50.936;0.246;2023-05-22T10:10:59;101386.36;;;16.53;53.28
64632;BME280;58358;50.936;0.246;2023-05-22T10:13:24;101392.15;;;16.32;54.87
64632;BME280;58358;50.936;0.246;2023-05-22T10:15:49;101389.30;;;16.15;55.11
64632;BME280;58358;50.936;0.246;2023-05-22T10:18:15;101381.38;;;17.81;51.29
64632;BME280;58358;50.936;0.246;2023-05-22T10:20:41;101377.31;;;19.06;48.70
64632;BME280;58358;50.936;0.246;2023-05-22T10:23:07;101373.66;;;19.30;47.68
64632;BME280;58358;50.936;0.246;2023-05-22T10:25:31;101376.56;;;17.78;50.43
64632;BME280;58358;50.936;0.246;2023-05-22T10:27:57;101373.70;;;16.44;52.57
64632;BME280;58358;50.936;0.246;2023-05-22T10:30:27;101367.65;;;16.45;53.20
64632;BME280;58358;50.936;0.246;2023-05-22T10:32:51;101374.08;;;15.23;56.38
64632;BME280;58358;50.936;0.246;2023-05-22T10:35:18;101360.91;;;15.50;56.55
64632;BME280;58358;50.936;0.246;2023-05-22T10:37:47;101367.37;;;18.01;50.38
64632;BME280;58358;50.936;0.246;2023-05-22T10:40:08;101367.17;;;16.44;53.53
64632;BME280;58358;50.936;0.246;2023-05-22T10:42:30;101375.14;;;17.34;52.65
64632;BME280;58358;50.936;0.246;2023-05-22T10:44:55;101375.30;;;16.64;51.72
64632;BME280;58358;50.936;0.246;2023-05-22T10:47:21;101369.84;;;16.24;51.89
64632;BME280;58358;50.936;0.246;2023-05-22T10:49:46;101370.01;;;16.32;53.62
64632;BME280;58358;50.936;0.246;2023-05-22T10:52:12;101365.96;;;16.53;52.88
64632;BME280;58358;50.936;0.246;2023-05-22T10:54:38;101369.84;;;16.43;53.50
64632;BME280;58358;50.936;0.246;2023-05-22T10:57:12;101367.20;;;16.28;53.99
64632;BME280;58358;50.936;0.246;2023-05-22T10:59:32;101365.18;;;16.55;52.33
64632;BME280;58358;50.936;0.246;2023-05-22T11:01:59;101366.79;;;16.08;53.66
64632;BME280;58358;50.936;0.246;2023-05-22T11:04:18;101365.09;;;16.46;54.78
64632;BME280;58358;50.936;0.246;2023-05-22T11:06:45;101356.51;;;16.33;53.88
64632;BME280;58358;50.936;0.246;2023-05-22T11:09:25;101364.91;;;16.49;53.35
64632;BME280;58358;50.936;0.246;2023-05-22T11:11:35;101373.27;;;15.76;55.44
64632;BME280;58358;50.936;0.246;2023-05-22T11:14:01;101374.16;;;15.99;53.61
64632;BME280;58358;50.936;0.246;2023-05-22T11:16:30;101368.62;;;15.50;56.79
64632;BME280;58358;50.936;0.246;2023-05-22T11:19:00;101368.33;;;15.65;56.92
64632;BME280;58358;50.936;0.246;2023-05-22T11:21:17;101367.99;;;15.29;55.62
64632;BME280;58358;50.936;0.246;2023-05-22T11:23:44;101364.99;;;15.45;56.47
64632;BME280;58358;50.936;0.246;2023-05-22T11:26:18;101360.72;;;15.61;56.29
64632;BME280;58358;50.936;0.246;2023-05-22T11:28:33;101359.29;;;16.22;55.45
64632;BME280;58358;50.936;0.246;2023-05-22T11:30:59;101354.30;;;16.93;51.99
64632;BME280;58358;50.936;0.246;2023-05-22T11:33:24;101354.59;;;16.92;52.72
64632;BME280;58358;50.936;0.246;2023-05-22T11:35:52;101351.10;;;17.61;51.45
64632;BME280;58358;50.936;0.246;2023-05-22T11:38:16;101350.85;;;16.92;51.76
64632;BME280;58358;50.936;0.246;2023-05-22T11:40:41;101351.72;;;17.20;50.57
64632;BME280;58358;50.936;0.246;2023-05-22T11:43:07;101362.87;;;16.05;54.45
64632;BME280;58358;50.936;0.246;2023-05-22T11:45:36;101357.34;;;15.02;56.90
64632;BME280;58358;50.936;0.246;2023-05-22T11:47:58;101352.22;;;16.62;52.92
64632;BME280;58358;50.936;0.246;2023-05-22T11:50:24;101362.92;;;15.63;54.45
64632;BME280;58358;50.936;0.246;2023-05-22T11:52:49;101368.06;;;14.82;55.93
64632;BME280;58358;50.936;0.246;2023-05-22T11:55:14;101363.05;;;15.00;57.19
64632;BME280;58358;50.936;0.246;2023-05-22T11:57:39;101367.38;;;14.97;56.72
64632;BME280;58358;50.936;0.246;2023-05-22T12:00:06;101368.44;;;14.45;57.12
64632;BME280;58358;50.936;0.246;2023-05-22T12:02:31;101371.38;;;14.19;59.53
64632;BME280;58358;50.936;0.246;2023-05-22T12:04:57;101370.04;;;15.31;56.99
64632;BME280;58358;50.936;0.246;2023-05-22T12:07:22;101380.67;;;15.14;55.01
64632;BME280;58358;50.936;0.246;2023-05-22T12:09:48;101372.27;;;16.01;55.06
64632;BME280;58358;50.936;0.246;2023-05-22T12:12:14;101370.01;;;16.33;53.23
64632;BME280;58358;50.936;0.246;2023-05-22T12:14:43;101371.96;;;15.88;53.70
64632;BME280;58358;50.936;0.246;2023-05-22T12:17:04;101379.96;;;15.89;55.25
64632;BME280;58358;50.936;0.246;2023-05-22T12:19:29;101376.01;;;15.40;56.73
64632;BME280;58358;50.936;0.246;2023-05-22T12:21:55;101385.17;;;15.58;55.38
64632;BME280;58358;50.936;0.246;2023-05-22T12:24:21;101379.99;;;15.27;55.01
64632;BME280;58358;50.936;0.246;2023-05-22T12:26:49;101377.66;;;15.58;54.43
64632;BME280;58358;50.936;0.246;2023-05-22T12:29:11;101380.16;;;16.58;53.34
64632;BME280;58358;50.936;0.246;2023-05-22T12:31:37;101374.23;;;15.74;53.79
64632;BME280;58358;50.936;0.246;2023-05-22T12:34:05;101372.09;;;15.44;56.27
64632;BME280;58358;50.936;0.246;2023-05-22T12:36:33;101375.03;;;16.93;52.34
64632;BME280;58358;50.936;0.246;2023-05-22T12:38:55;101372.34;;;16.54;52.17
64632;BME280;58358;50.936;0.246;2023-05-22T12:41:19;101373.70;;;17.11;50.80
64632;BME280;58358;50.936;0.246;2023-05-22T12:43:45;101371.54;;;17.02;52.09
64632;BME280;58358;50.936;0.246;2023-05-22T12:46:10;101371.76;;;16.92;52.74
64632;BME280;58358;50.936;0.246;2023-05-22T12:48:36;101366.68;;;17.50;49.95
64632;BME280;58358;50.936;0.246;2023-05-22T12:51:01;101371.54;;;16.74;51.33